Weather at Oscar Machado Zuluaga Airport

Public forecast

Using degrees Celsius for public forecast. Weather courtesy of forecast.io.

Current aviation weather report (METAR) for Oscar Machado Zuluaga Airport

Report is more than 6 hours old.

Retrieved 2020/10/22 23:02 UTC (12 hours ago):

SVCS 222302Z AUTO 32005KT NCD ///// Q1015

Closest aviation forecast (TAF) to Oscar Machado Zuluaga Airport

Closest forecast is Simón Bolívar International Airport, 21.6 nm (39.9 km) NNW. Retrieved 2020/10/23 06:03 UTC (5 hours ago):

TAF SVMI 230400Z 2306/2406 00000KT 9999 SCT016 TX34/2318Z TN24/1908Z BECMG 2306/2310 00000KT 9999 FEW016